Weather observations for the past three days for
Walla Walla Regional Airport
Imperial (Metric)
Date Time (pdt) Wind (mph) Vis. (mi.) Weather Sky Cond. Temperature (ºF) Relative Humidity Wind Chill (°F) Heat Index (°F) Pressure Precipitation (in)
Air Dwpt 6 hour altimeter (in) sea level (mb) 1 hr 3 hr 6 hr
Max. Min.
06 04:53 SE 3 10.00 Fair CLR 55.9 46 63 55.9 70% 29.91 1012.2
06 03:53 S 9 10.00 Fair CLR 61 44.1 54% 29.9 1012.0
06 02:53 SE 5 10.00 Fair CLR 59 42.1 54% 29.89 1011.7
06 01:53 Calm 10.00 Fair CLR 59 42.1 54% 29.87 1011.1
06 00:53 SE 10 10.00 Fair CLR 63 41 45% 29.87 1010.8
05 23:53 E 9 10.00 Fair CLR 63 41 45% 29.86 1010.7
05 22:53 Calm 10.00 Fair CLR 63 43 80.1 61 48% 29.86 1010.6
05 21:53 E 7 10.00 Fair CLR 64.9 45 49% 29.85 1010.2
05 20:53 E 7 10.00 Fair CLR 64.9 46.9 52% 29.84 1010.0
05 19:53 E 8 10.00 Fair CLR 71.1 46.9 42% 29.83 1009.5
05 18:53 NE 7 10.00 Fair CLR 77 46 33% 78 29.83 1009.4
05 17:53 N 10 10.00 Fair CLR 80.1 44.1 28% 79 29.83 1009.3
05 16:53 NE 8 10.00 Partly Cloudy SCT085 80.1 48.9 80.1 71.1 34% 79 29.83 1009.5
05 15:53 E 6 10.00 Fair CLR 79 48 34% 79 29.84 1009.8
05 14:53 W 3 10.00 Fair CLR 77 48.9 37% 78 29.85 1010.2
05 13:53 Vrbl 3 10.00 Fair CLR 77 50 39% 78 29.86 1010.7
05 12:53 NW 8 10.00 Fair CLR 73.9 52 46% 29.87 1010.9
05 11:53 W 8 10.00 Fair CLR 72 52 50% 29.87 1011.2
05 10:53 SW 8 10.00 Fair CLR 71.1 51.1 72 59 49% 29.88 1011.3
05 09:53 W 9 10.00 Fair CLR 70 51.1 51% 29.87 1010.9
05 08:53 SW 9 10.00 Fair CLR 68 50 53% 29.86 1010.7
05 07:53 SW 10 10.00 Fair CLR 66 50 56% 29.85 1010.1
05 06:53 S 7 10.00 Fair CLR 62.1 48.9 62% 29.83 1009.5
05 05:53 S 7 10.00 Fair CLR 59 46.9 64% 29.81 1008.8
05 04:53 S 7 10.00 Fair CLR 60.1 46.9 64 59 62% 29.79 1008.2
05 03:53 SE 6 10.00 Fair CLR 61 46 58% 29.78 1007.7
05 02:53 S 8 10.00 Fair CLR 63 46 54% 29.76 1007.1
05 00:53 SW 8 10.00 Fair CLR 62.1 46 56% 29.74 1006.5
04 23:53 E 12 10.00 Fair CLR 61 46.9 60% 29.72 1005.8
04 22:53 E 10 10.00 Fair CLR 63 48 82.9 61 58% 29.71 1005.5
04 21:53 E 9 10.00 Fair CLR 64.9 48 54% 29.71 1005.6
04 20:53 E 8 10.00 Fair CLR 66 51.1 59% 29.71 1005.4
04 19:53 SE 6 10.00 Fair CLR 75.9 48 37% 78 29.69 1004.7
04 18:53 S 8 10.00 Fair CLR 80.1 45 29% 79 29.69 1004.8
04 17:53 SE 6 10.00 Fair CLR 81 44.1 27% 80 29.7 1005.3
04 16:53 Vrbl 6 10.00 Fair CLR 82 42.1 82 72 24% 80 29.71 1005.5
04 15:53 N 5 10.00 Fair CLR 81 42.1 25% 79 29.73 1005.9
04 14:53 Vrbl 3 10.00 Fair CLR 80.1 39.9 24% 79 29.74 1006.5
04 13:53 W 7 10.00 Fair CLR 79 44.1 29% 79 29.76 1007.2
04 12:53 Vrbl 7 10.00 Fair CLR 77 44.1 31% 78 29.78 1007.6
04 11:53 W 9 10.00 Fair CLR 75.9 42.1 30% 77 29.78 1007.8
04 10:53 SW 6 10.00 Fair CLR 73 42.1 73 55 33% 29.79 1008.1
04 09:53 W 7 10.00 Fair CLR 70 42.1 37% 29.79 1008.1
04 08:53 SW 5 10.00 Fair CLR 68 41 38% 29.79 1008.2
04 07:53 NW 3 10.00 Fair CLR 66 44.1 45% 29.78 1007.9
04 06:53 NE 3 10.00 Fair CLR 60.1 45 58% 29.77 1007.5
04 05:53 E 6 10.00 Fair CLR 57 41 55% 29.75 1006.8
04 04:53 SE 8 10.00 Fair CLR 57.9 41 64 57.9 53% 29.76 1007.1
04 03:53 Calm 10.00 Fair CLR 60.1 39.9 48% 29.77 1007.2
04 02:53 E 6 10.00 Fair CLR 59 41 51% 29.77 1007.5
04 01:53 E 8 10.00 Fair CLR 62.1 41 46% 29.76 1007.2
03 23:53 E 7 10.00 Fair CLR 63 42.1 47% 29.77 1007.5
03 22:53 E 8 10.00 Fair CLR 64 43 82.9 63 46% 29.77 1007.6
03 21:53 E 9 10.00 Fair CLR 64.9 44.1 47% 29.78 1007.8
03 20:53 E 9 10.00 Fair CLR 64.9 48.9 56% 29.77 1007.7
03 19:53 NE 3 10.00 Fair CLR 75.9 44.1 32% 77 29.76 1007.2
03 18:53 N 6 10.00 Fair CLR 81 42.1 25% 79 29.77 1007.5
03 17:53 N 7 10.00 Fair CLR 82.9 39 21% 81 29.79 1008.3
03 16:53 N 3 10.00 Fair CLR 82.9 35.1 84 70 18% 80 29.81 1008.9
03 15:53 N 6 10.00 Fair CLR 82.9 37 19% 80 29.83 1009.5
03 14:53 Vrbl 3 10.00 Fair CLR 82 46 28% 80 29.85 1010.3
03 13:53 W 6 10.00 Fair CLR 80.1 48 33% 79 29.87 1011.0
03 12:53 Calm 10.00 Fair CLR 77 46.9 35% 78 29.89 1011.7
03 11:53 Vrbl 6 10.00 Fair CLR 72 46.9 41% 29.92 1012.6
03 10:53 W 6 10.00 Fair CLR 70 46 71.1 51.1 42% 29.93 1013.0
03 09:53 Vrbl 5 10.00 Fair CLR 66.9 46 47% 29.94 1013.4
03 08:53 Vrbl 3 10.00 Fair CLR 66 45 47% 29.93 1013.2
03 07:53 S 3 10.00 Fair CLR 63 44.1 50% 29.93 1013.1
03 06:53 Calm 10.00 Fair CLR 57.9 44.1 60% 29.93 1013.1
03 05:53 E 5 10.00 Fair CLR 52 42.1 69% 29.92 1012.8
Date Time (pdt) Wind (mph) Vis. (mi.) Weather Sky Cond. Air Dwpt Max. Min. Relative Humidity Wind Chill (°F) Heat Index (°F) altimeter (in) sea level (mb) 1 hr 3 hr 6 hr
6 hour
Temperature (ºF) Pressure Precipitation (in)